Terminal Aerodrome Forecast
Issued by NWS

Home | Current Version | Previous Version | Text Only | Print | Product List | Glossary On
Versions: 1 2 3 4 5 6 7 8 9 10 11 12 13 14 15 16 17 18 19 20
358
FTUS46 KPDT 210539
TAFPSC
TAF
KPSC 210539Z 2106/2206 27004KT P6SM VCSH SCT080 OVC100
     FM210700 28005KT P6SM -RA BKN060 OVC090
     FM211000 28004KT 5SM -RA BR BKN020 OVC040
     FM211900 31006KT P6SM -SHRA SCT035 OVC060
     FM212300 29010KT P6SM SCT060 BKN200=

USA.gov is the U.S. government's official web portal to all federal, state and local government web resources and services.